createdAt,value
2022-08-20T00:02:16.719Z,17.13
2022-08-20T00:04:46.367Z,16.47
2022-08-20T00:07:16.643Z,17.53
2022-08-20T00:09:44.531Z,17.00
2022-08-20T00:12:13.701Z,16.07
2022-08-20T00:14:43.173Z,16.80
2022-08-20T00:17:12.130Z,17.83
2022-08-20T00:19:39.018Z,18.20
2022-08-20T00:22:06.105Z,17.30
2022-08-20T00:24:33.026Z,16.77
2022-08-20T00:27:02.703Z,18.57
2022-08-20T00:29:31.795Z,18.17
2022-08-20T00:32:01.408Z,19.73
2022-08-20T00:34:28.972Z,19.00
2022-08-20T00:36:55.868Z,18.17
2022-08-20T00:39:22.858Z,18.60
2022-08-20T00:41:51.950Z,19.23
2022-08-20T00:44:22.834Z,18.33
2022-08-20T00:46:53.550Z,18.67
2022-08-20T00:49:33.555Z,18.57
2022-08-20T00:52:22.041Z,17.90
2022-08-20T00:54:59.396Z,17.23
2022-08-20T00:57:58.917Z,17.20
2022-08-20T01:00:38.287Z,16.63
2022-08-20T01:03:16.513Z,16.50
2022-08-20T01:05:51.346Z,16.00
2022-08-20T01:08:24.626Z,16.40
2022-08-20T01:11:14.349Z,17.30
2022-08-20T01:13:46.569Z,17.60
2022-08-20T01:16:26.647Z,15.80
2022-08-20T01:18:57.674Z,17.20
2022-08-20T01:21:28.831Z,16.60
2022-08-20T01:24:22.644Z,17.60
2022-08-20T01:26:50.101Z,16.90
2022-08-20T01:29:28.662Z,17.17
2022-08-20T01:32:01.251Z,18.23
2022-08-20T01:34:30.789Z,17.90
2022-08-20T01:36:59.320Z,18.13
2022-08-20T01:39:36.414Z,17.80
2022-08-20T01:42:15.379Z,17.80
2022-08-20T01:44:50.036Z,18.30
2022-08-20T01:47:27.019Z,21.07
2022-08-20T01:49:59.961Z,20.40
2022-08-20T01:52:33.257Z,18.23
2022-08-20T01:55:00.203Z,18.20
2022-08-20T01:57:32.207Z,18.93
2022-08-20T02:00:07.194Z,18.80
2022-08-20T02:02:36.231Z,18.80
2022-08-20T02:05:06.213Z,17.43
2022-08-20T02:07:37.673Z,18.07
2022-08-20T02:10:10.925Z,18.00
2022-08-20T02:12:39.861Z,18.10
2022-08-20T02:15:10.399Z,18.87
2022-08-20T02:17:39.235Z,18.03
2022-08-20T02:20:37.913Z,18.27
2022-08-20T02:23:06.071Z,18.50
2022-08-20T02:25:36.635Z,18.30
2022-08-20T02:28:09.238Z,18.60
2022-08-20T02:30:46.972Z,19.67
2022-08-20T02:33:19.635Z,20.50
2022-08-20T02:35:52.233Z,20.03
2022-08-20T02:38:22.772Z,20.00
2022-08-20T02:40:49.996Z,19.37
2022-08-20T02:43:20.093Z,19.17
2022-08-20T02:45:49.409Z,18.60
2022-08-20T02:48:23.336Z,19.73
2022-08-20T02:50:58.385Z,19.00
2022-08-20T02:53:36.750Z,20.57
2022-08-20T02:56:08.516Z,19.57
2022-08-20T02:58:36.117Z,19.93
2022-08-20T03:01:06.331Z,17.50
2022-08-20T03:03:33.781Z,18.73
2022-08-20T03:06:06.650Z,17.43
2022-08-20T03:08:34.209Z,18.30
2022-08-20T03:11:01.061Z,17.77
2022-08-20T03:13:28.001Z,17.70
2022-08-20T03:16:00.790Z,18.37
2022-08-20T03:18:34.414Z,17.90
2022-08-20T03:21:05.677Z,19.33
2022-08-20T03:23:36.664Z,16.17
2022-08-20T03:26:12.948Z,16.60
2022-08-20T03:28:41.109Z,17.77
2022-08-20T03:31:08.393Z,15.03
2022-08-20T03:33:39.428Z,15.70
2022-08-20T03:36:22.104Z,15.73
2022-08-20T03:38:59.152Z,15.93
2022-08-20T03:41:28.998Z,15.50
2022-08-20T03:44:01.127Z,14.30
2022-08-20T03:46:28.780Z,14.43
2022-08-20T03:48:59.541Z,14.70
2022-08-20T03:51:31.069Z,14.43
2022-08-20T03:53:58.552Z,12.30
2022-08-20T03:56:31.681Z,13.07
2022-08-20T03:59:03.540Z,12.20
2022-08-20T04:01:44.477Z,12.80
2022-08-20T04:04:15.545Z,11.20
2022-08-20T04:06:43.626Z,12.37
2022-08-20T04:09:13.773Z,11.90
2022-08-20T04:11:42.378Z,11.50
2022-08-20T04:14:19.525Z,11.27
2022-08-20T04:16:47.584Z,11.10
2022-08-20T04:19:16.496Z,10.77
2022-08-20T04:21:48.600Z,10.60
2022-08-20T04:24:22.614Z,10.07
2022-08-20T04:26:59.850Z,11.40
2022-08-20T04:29:32.297Z,10.70
2022-08-20T04:32:02.767Z,10.60
2022-08-20T04:34:33.718Z,11.03
2022-08-20T04:37:00.734Z,10.27
2022-08-20T04:39:32.279Z,11.13
2022-08-20T04:42:03.849Z,11.27
2022-08-20T04:44:30.712Z,11.07
2022-08-20T04:46:59.771Z,10.17
2022-08-20T04:49:29.163Z,10.10
2022-08-20T04:51:59.489Z,10.93
2022-08-20T04:54:26.486Z,10.50
2022-08-20T04:56:53.408Z,10.10
2022-08-20T04:59:20.265Z,10.57
2022-08-20T05:01:49.672Z,11.70
2022-08-20T05:04:16.622Z,10.40
2022-08-20T05:06:43.516Z,10.27
2022-08-20T05:09:10.371Z,11.87
2022-08-20T05:11:37.334Z,11.17
2022-08-20T05:14:08.968Z,11.50
2022-08-20T05:16:40.932Z,11.30
2022-08-20T05:19:12.242Z,11.87
2022-08-20T05:21:40.281Z,12.13
2022-08-20T05:24:10.165Z,11.87
2022-08-20T05:26:37.172Z,12.83
2022-08-20T05:29:07.558Z,11.77
2022-08-20T05:31:35.171Z,12.57
2022-08-20T05:34:09.578Z,12.00
2022-08-20T05:36:49.068Z,11.60
2022-08-20T05:39:18.404Z,12.80
2022-08-20T05:41:45.683Z,11.70
2022-08-20T05:44:14.227Z,12.53
2022-08-20T05:46:43.879Z,11.23
2022-08-20T05:49:15.597Z,12.40
2022-08-20T05:51:43.859Z,13.50
2022-08-20T05:54:11.340Z,12.60
2022-08-20T05:56:41.381Z,12.30
2022-08-20T05:59:13.985Z,12.60
2022-08-20T06:01:46.650Z,13.47
2022-08-20T06:04:24.912Z,13.00
2022-08-20T06:07:04.205Z,11.77
2022-08-20T06:09:32.781Z,11.50
2022-08-20T06:12:07.716Z,12.50
2022-08-20T06:14:35.427Z,11.70
2022-08-20T06:17:15.363Z,12.23
2022-08-20T06:19:44.729Z,11.67
2022-08-20T06:22:19.571Z,10.70
2022-08-20T06:24:55.715Z,10.70
2022-08-20T06:27:26.132Z,10.87
2022-08-20T06:29:56.027Z,9.80
2022-08-20T06:32:28.773Z,10.30
2022-08-20T06:35:02.170Z,10.73
2022-08-20T06:37:36.546Z,10.53
2022-08-20T06:40:10.235Z,9.70
2022-08-20T06:42:47.771Z,10.20
2022-08-20T06:45:19.178Z,8.50
2022-08-20T06:47:47.606Z,8.63
2022-08-20T06:50:20.346Z,8.40
2022-08-20T06:52:51.877Z,9.63
2022-08-20T06:55:26.228Z,8.77
2022-08-20T06:58:35.792Z,8.50
2022-08-20T07:01:09.096Z,9.20
2022-08-20T07:03:38.310Z,8.87
2022-08-20T07:06:08.390Z,8.80
2022-08-20T07:08:38.288Z,8.20
2022-08-20T07:11:07.158Z,7.90
2022-08-20T07:13:40.925Z,7.83
2022-08-20T07:16:10.236Z,8.43
2022-08-20T07:18:41.811Z,7.83
2022-08-20T07:21:12.166Z,8.00
2022-08-20T07:23:39.048Z,6.93
2022-08-20T07:26:08.097Z,7.77
2022-08-20T07:28:34.966Z,7.43
2022-08-20T07:31:20.517Z,8.70
2022-08-20T07:33:50.214Z,7.03
2022-08-20T07:36:20.342Z,7.70
2022-08-20T07:38:52.628Z,7.60
2022-08-20T07:41:20.866Z,6.97
2022-08-20T07:43:52.407Z,7.43
2022-08-20T07:46:23.769Z,6.70
2022-08-20T07:49:00.360Z,6.27
2022-08-20T07:51:32.806Z,7.07
2022-08-20T07:54:02.047Z,6.33
2022-08-20T07:56:29.549Z,7.87
2022-08-20T07:59:01.546Z,7.10
2022-08-20T08:01:31.299Z,7.10
2022-08-20T08:03:59.700Z,9.60
2022-08-20T08:06:31.023Z,8.57
2022-08-20T08:09:08.716Z,8.17
2022-08-20T08:11:39.772Z,8.27
2022-08-20T08:14:11.562Z,8.10
2022-08-20T08:16:45.343Z,7.80
2022-08-20T08:19:15.020Z,7.90
2022-08-20T08:21:43.492Z,7.57
2022-08-20T08:24:12.680Z,8.63
2022-08-20T08:26:41.322Z,9.10
2022-08-20T08:29:08.208Z,7.50
2022-08-20T08:31:35.408Z,8.30
2022-08-20T08:34:02.357Z,8.20
2022-08-20T08:36:29.262Z,44.43
2022-08-20T08:38:56.622Z,8.57
2022-08-20T08:41:57.285Z,6.73
2022-08-20T08:44:36.008Z,7.73
2022-08-20T08:47:18.501Z,6.90
2022-08-20T08:49:47.570Z,6.03
2022-08-20T08:52:34.439Z,5.73
2022-08-20T08:55:06.443Z,7.63
2022-08-20T08:57:34.286Z,6.87
2022-08-20T09:00:17.262Z,5.97
2022-08-20T09:03:04.507Z,5.60
2022-08-20T09:05:51.384Z,5.23
2022-08-20T09:08:25.667Z,5.73
2022-08-20T09:10:52.576Z,4.97
2022-08-20T09:13:22.327Z,4.83
2022-08-20T09:15:52.207Z,4.70
2022-08-20T09:18:21.534Z,4.80
2022-08-20T09:20:50.569Z,4.93
2022-08-20T09:23:22.237Z,3.70
2022-08-20T09:25:49.441Z,4.03
2022-08-20T09:28:16.289Z,4.73
2022-08-20T09:30:46.036Z,4.13
2022-08-20T09:33:13.860Z,4.20
2022-08-20T09:35:44.825Z,5.00
2022-08-20T09:38:16.272Z,4.33
2022-08-20T09:40:44.466Z,4.83
2022-08-20T09:43:16.482Z,4.87
2022-08-20T09:45:43.400Z,4.70
2022-08-20T09:48:10.666Z,4.20
2022-08-20T09:50:44.153Z,4.57
2022-08-20T09:53:11.764Z,4.00
2022-08-20T09:55:42.726Z,3.67
2022-08-20T09:58:53.510Z,5.20
2022-08-20T10:01:25.028Z,4.37
2022-08-20T10:03:51.962Z,4.07
2022-08-20T10:06:22.479Z,3.20
2022-08-20T10:08:52.955Z,3.70
2022-08-20T10:11:19.928Z,3.93
2022-08-20T10:13:49.891Z,3.10
2022-08-20T10:16:16.734Z,3.20
2022-08-20T10:18:43.595Z,3.27
2022-08-20T10:21:12.046Z,3.70
2022-08-20T10:23:38.976Z,2.93
2022-08-20T10:26:10.103Z,2.97
2022-08-20T10:28:37.707Z,2.80
2022-08-20T10:31:12.178Z,3.13
2022-08-20T10:33:41.121Z,3.17
2022-08-20T10:36:17.360Z,3.30
2022-08-20T10:38:48.481Z,3.10
2022-08-20T10:41:17.939Z,3.20
2022-08-20T10:43:47.645Z,3.00
2022-08-20T10:46:17.114Z,3.00
2022-08-20T10:48:44.329Z,3.07
2022-08-20T10:51:11.247Z,3.50
2022-08-20T10:53:38.964Z,3.70
2022-08-20T10:56:06.103Z,3.87
2022-08-20T10:58:39.622Z,3.63
2022-08-20T11:01:09.955Z,2.63
2022-08-20T11:03:36.913Z,3.00
2022-08-20T11:06:06.944Z,3.40
2022-08-20T11:08:36.394Z,2.30
2022-08-20T11:11:06.860Z,2.47
2022-08-20T11:13:37.078Z,2.50
2022-08-20T11:16:07.656Z,3.10
2022-08-20T11:18:37.028Z,2.60
2022-08-20T11:21:04.068Z,2.23
2022-08-20T11:23:33.947Z,2.77
2022-08-20T11:26:00.939Z,2.77
2022-08-20T11:28:32.380Z,3.10
2022-08-20T11:31:00.939Z,2.47
2022-08-20T11:33:28.119Z,2.93
2022-08-20T11:35:55.052Z,2.87
2022-08-20T11:38:21.968Z,2.80
2022-08-20T11:40:53.417Z,4.03
2022-08-20T11:43:20.423Z,3.07
2022-08-20T11:45:52.841Z,2.10
2022-08-20T11:48:20.202Z,2.83
2022-08-20T11:50:48.625Z,2.60
2022-08-20T11:53:17.823Z,3.07
2022-08-20T11:55:45.293Z,2.53
2022-08-20T11:58:14.901Z,2.73
2022-08-20T12:00:44.020Z,2.63
2022-08-20T12:03:13.883Z,2.60
2022-08-20T12:05:46.093Z,3.00
2022-08-20T12:08:26.442Z,2.97
2022-08-20T12:11:04.136Z,3.30
2022-08-20T12:13:47.765Z,3.20
2022-08-20T12:16:21.282Z,2.80
2022-08-20T12:18:48.767Z,3.23
2022-08-20T12:21:20.382Z,2.50
2022-08-20T12:23:48.127Z,2.50
2022-08-20T12:26:17.917Z,2.27
2022-08-20T12:28:44.759Z,3.33
2022-08-20T12:31:11.640Z,3.27
2022-08-20T12:33:40.633Z,2.97
2022-08-20T12:36:07.960Z,3.10
2022-08-20T12:38:35.242Z,2.33
2022-08-20T12:41:02.613Z,2.43
2022-08-20T12:43:29.614Z,2.87
2022-08-20T12:45:56.493Z,2.40
2022-08-20T12:48:23.337Z,2.50
2022-08-20T12:50:54.928Z,3.50
2022-08-20T12:53:24.804Z,3.30
2022-08-20T12:55:51.712Z,3.17
2022-08-20T12:58:19.384Z,2.87
2022-08-20T13:00:50.701Z,3.27
2022-08-20T13:03:20.228Z,3.00
2022-08-20T13:05:48.565Z,3.00
2022-08-20T13:08:17.574Z,3.50
2022-08-20T13:10:47.345Z,2.43
2022-08-20T13:13:19.924Z,4.47
2022-08-20T13:15:49.068Z,2.60
2022-08-20T13:18:18.195Z,2.53
2022-08-20T13:20:48.227Z,2.87
2022-08-20T13:23:20.221Z,2.73
2022-08-20T13:25:47.279Z,2.50
2022-08-20T13:28:16.387Z,2.30
2022-08-20T13:30:43.324Z,2.20
2022-08-20T13:33:12.516Z,2.27
2022-08-20T13:35:41.660Z,2.50
2022-08-20T13:38:10.958Z,3.07
2022-08-20T13:40:38.010Z,2.27
2022-08-20T13:43:07.755Z,2.57
2022-08-20T13:45:40.769Z,2.87
2022-08-20T13:48:10.034Z,2.30
2022-08-20T13:50:42.848Z,2.17
2022-08-20T13:53:09.717Z,2.60
2022-08-20T13:55:39.578Z,2.57
2022-08-20T13:58:10.239Z,2.50
2022-08-20T14:00:37.897Z,2.23
2022-08-20T14:03:08.788Z,2.40
2022-08-20T14:05:36.633Z,2.27
2022-08-20T14:08:22.767Z,2.13
2022-08-20T14:10:52.764Z,3.00
2022-08-20T14:13:27.707Z,2.80
2022-08-20T14:15:56.467Z,2.43
2022-08-20T14:18:26.030Z,2.17
2022-08-20T14:20:52.992Z,2.03
2022-08-20T14:23:22.290Z,2.57
2022-08-20T14:25:52.885Z,2.37
2022-08-20T14:28:23.728Z,2.30
2022-08-20T14:30:52.821Z,1.80
2022-08-20T14:33:22.061Z,2.30
2022-08-20T14:35:52.461Z,3.73
2022-08-20T14:38:19.551Z,2.57
2022-08-20T14:40:47.334Z,2.03
2022-08-20T14:43:14.227Z,2.20
2022-08-20T14:45:41.139Z,1.97
2022-08-20T14:48:11.043Z,2.57
2022-08-20T14:50:39.090Z,2.40
2022-08-20T14:53:06.629Z,2.50
2022-08-20T14:55:37.536Z,2.73
2022-08-20T14:58:12.565Z,1.93
2022-08-20T15:00:39.944Z,2.60
2022-08-20T15:03:09.123Z,4.13
2022-08-20T15:05:39.162Z,2.10
2022-08-20T15:08:07.604Z,2.67
2022-08-20T15:10:39.694Z,5.43
2022-08-20T15:13:07.248Z,1.73
2022-08-20T15:15:35.013Z,2.73
2022-08-20T15:18:04.456Z,1.87
2022-08-20T15:20:34.099Z,2.00
2022-08-20T15:23:01.965Z,2.10
2022-08-20T15:25:36.581Z,2.03
2022-08-20T15:28:11.611Z,1.80
2022-08-20T15:30:42.344Z,2.60
2022-08-20T15:33:13.531Z,2.30
2022-08-20T15:35:40.644Z,2.70
2022-08-20T15:38:13.130Z,1.60
2022-08-20T15:40:40.271Z,2.93
2022-08-20T15:43:07.551Z,2.40
2022-08-20T15:45:38.158Z,2.07
2022-08-20T15:48:19.189Z,2.00
2022-08-20T15:51:28.263Z,2.03
2022-08-20T15:54:08.478Z,2.13
2022-08-20T15:56:51.857Z,1.97
2022-08-20T15:59:47.152Z,1.73
2022-08-20T16:02:50.925Z,3.10
2022-08-20T16:05:44.995Z,2.30
2022-08-20T16:08:33.200Z,1.77
2022-08-20T16:11:03.211Z,2.03
2022-08-20T16:13:40.659Z,1.93
2022-08-20T16:16:17.388Z,1.93
2022-08-20T16:18:49.750Z,2.27
2022-08-20T16:21:21.437Z,1.50
2022-08-20T16:23:49.592Z,2.40
2022-08-20T16:26:53.679Z,2.30
2022-08-20T16:29:39.949Z,5.47
2022-08-20T16:32:18.895Z,3.10
2022-08-20T16:34:56.916Z,2.00
2022-08-20T16:37:41.915Z,2.77
2022-08-20T16:40:49.395Z,1.60
2022-08-20T16:43:41.011Z,2.80
2022-08-20T16:46:19.353Z,2.50
2022-08-20T16:48:56.034Z,2.17
2022-08-20T16:51:35.018Z,2.27
2022-08-20T16:54:04.443Z,2.10
2022-08-20T16:56:57.650Z,2.60
2022-08-20T16:59:27.016Z,2.00
2022-08-20T17:02:10.226Z,2.70
2022-08-20T17:04:50.521Z,2.20
2022-08-20T17:07:50.685Z,2.90
2022-08-20T17:10:25.084Z,2.40
2022-08-20T17:13:28.045Z,1.87
2022-08-20T17:16:01.221Z,2.53
2022-08-20T17:18:39.135Z,1.80
2022-08-20T17:21:23.303Z,2.57
2022-08-20T17:24:06.626Z,2.43
2022-08-20T17:26:45.101Z,3.03
2022-08-20T17:29:19.278Z,1.97
2022-08-20T17:31:53.042Z,2.70
2022-08-20T17:34:24.880Z,2.03
2022-08-20T17:37:08.170Z,2.27
2022-08-20T17:39:44.823Z,2.30
2022-08-20T17:42:26.165Z,2.63
2022-08-20T17:45:08.299Z,2.07
2022-08-20T17:47:40.133Z,2.90
2022-08-20T17:50:20.753Z,7.60
2022-08-20T17:52:58.877Z,2.27
2022-08-20T17:55:26.554Z,2.33
2022-08-20T17:58:00.717Z,2.10
2022-08-20T18:00:28.750Z,2.93
2022-08-20T18:03:13.715Z,1.67
2022-08-20T18:05:45.556Z,1.93
2022-08-20T18:09:06.177Z,2.10
2022-08-20T18:11:42.666Z,2.63
2022-08-20T18:15:14.629Z,3.20
2022-08-20T18:18:23.260Z,2.50
2022-08-20T18:21:15.320Z,3.10
2022-08-20T18:23:51.921Z,6.40
2022-08-20T18:26:45.255Z,2.60
2022-08-20T18:29:18.720Z,2.77
2022-08-20T18:32:36.976Z,3.07
2022-08-20T18:35:30.940Z,2.80
2022-08-20T18:37:58.175Z,3.87
2022-08-20T18:40:33.575Z,3.77
2022-08-20T18:43:16.444Z,3.30
2022-08-20T18:45:43.341Z,2.97
2022-08-20T18:48:27.025Z,2.60
2022-08-20T18:50:57.370Z,3.07
2022-08-20T18:53:34.177Z,2.47
2022-08-20T18:56:08.788Z,2.77
2022-08-20T18:58:58.953Z,3.10
2022-08-20T19:01:26.046Z,4.17
2022-08-20T19:03:55.808Z,3.50
2022-08-20T19:07:00.306Z,3.27
2022-08-20T19:10:04.049Z,2.57
2022-08-20T19:13:17.166Z,3.00
2022-08-20T19:15:52.385Z,2.63
2022-08-20T19:18:54.195Z,3.00
2022-08-20T19:21:42.321Z,3.20
2022-08-20T19:24:12.904Z,3.23
2022-08-20T19:27:01.835Z,3.03
2022-08-20T19:29:39.244Z,3.10
2022-08-20T19:32:10.144Z,2.90
2022-08-20T19:34:37.134Z,2.40
2022-08-20T19:37:35.824Z,2.60
2022-08-20T19:40:40.113Z,2.53
2022-08-20T19:43:19.132Z,2.20
2022-08-20T19:45:54.687Z,2.10
2022-08-20T19:48:53.085Z,2.77
2022-08-20T19:52:00.672Z,2.30
2022-08-20T19:54:29.455Z,3.00
2022-08-20T19:57:03.800Z,3.30
2022-08-20T19:59:30.785Z,3.63
2022-08-20T20:02:04.020Z,3.83
2022-08-20T20:04:55.106Z,3.20
2022-08-20T20:08:02.754Z,5.50
2022-08-20T20:10:39.434Z,3.80
2022-08-20T20:13:13.641Z,4.57
2022-08-20T20:15:43.623Z,4.10
2022-08-20T20:18:13.765Z,3.93
2022-08-20T20:20:58.011Z,2.70
2022-08-20T20:23:45.833Z,3.07
2022-08-20T20:26:20.243Z,3.00
2022-08-20T20:29:00.697Z,2.90
2022-08-20T20:31:43.264Z,3.20
2022-08-20T20:34:16.307Z,2.90
2022-08-20T20:36:47.117Z,3.03
2022-08-20T20:40:19.051Z,2.90
2022-08-20T20:43:13.395Z,2.97
2022-08-20T20:45:54.471Z,3.53
2022-08-20T20:48:42.678Z,3.93
2022-08-20T20:51:17.751Z,3.87
2022-08-20T20:53:54.891Z,3.40
2022-08-20T20:56:31.754Z,3.03
2022-08-20T20:59:06.132Z,2.70
2022-08-20T21:01:49.025Z,3.13
2022-08-20T21:04:21.941Z,3.27
2022-08-20T21:06:53.653Z,3.50
2022-08-20T21:09:23.923Z,5.53
2022-08-20T21:11:51.368Z,5.50
2022-08-20T21:14:21.245Z,4.33
2022-08-20T21:16:48.373Z,3.50
2022-08-20T21:19:16.119Z,4.30
2022-08-20T21:21:45.671Z,3.57
2022-08-20T21:24:14.951Z,3.80
2022-08-20T21:26:44.858Z,3.03
2022-08-20T21:29:17.394Z,3.60
2022-08-20T21:31:46.420Z,3.30
2022-08-20T21:34:15.400Z,3.50
2022-08-20T21:36:42.896Z,4.83
2022-08-20T21:39:10.490Z,5.73
2022-08-20T21:41:40.267Z,6.23
2022-08-20T21:44:25.487Z,5.87
2022-08-20T21:46:54.706Z,5.43
2022-08-20T21:49:25.269Z,5.67
2022-08-20T21:51:55.053Z,3.97
2022-08-20T21:54:27.475Z,3.80
2022-08-20T21:57:04.211Z,3.30
2022-08-20T21:59:31.874Z,5.43
2022-08-20T22:02:01.245Z,4.70
2022-08-20T22:04:35.226Z,4.87
2022-08-20T22:07:03.478Z,4.50
2022-08-20T22:09:35.108Z,4.90
2022-08-20T22:12:07.488Z,4.30
2022-08-20T22:14:34.421Z,3.57
2022-08-20T22:17:01.331Z,4.30
2022-08-20T22:19:30.729Z,3.80
2022-08-20T22:21:57.733Z,3.97
2022-08-20T22:24:27.091Z,4.23
2022-08-20T22:26:54.228Z,3.70
2022-08-20T22:29:21.216Z,4.00
2022-08-20T22:31:50.850Z,5.57
2022-08-20T22:34:22.441Z,4.30
2022-08-20T22:36:54.052Z,4.60
2022-08-20T22:39:21.090Z,4.50
2022-08-20T22:41:47.988Z,4.47
2022-08-20T22:44:14.872Z,4.60
2022-08-20T22:46:48.153Z,4.23
2022-08-20T22:49:22.610Z,4.00
2022-08-20T22:51:49.600Z,4.53
2022-08-20T22:54:22.351Z,4.10
2022-08-20T22:56:50.544Z,4.10
2022-08-20T22:59:21.265Z,3.43
2022-08-20T23:01:53.015Z,3.30
2022-08-20T23:04:30.413Z,3.60
2022-08-20T23:07:02.393Z,4.50
2022-08-20T23:09:30.328Z,3.60
2022-08-20T23:11:57.532Z,4.33
2022-08-20T23:14:27.031Z,4.70
2022-08-20T23:17:13.630Z,3.83
2022-08-20T23:19:45.538Z,5.00
2022-08-20T23:22:13.277Z,4.20
2022-08-20T23:24:40.786Z,3.97
2022-08-20T23:27:13.514Z,4.43
2022-08-20T23:29:40.793Z,4.93
2022-08-20T23:32:07.895Z,4.30
2022-08-20T23:34:34.820Z,3.60
2022-08-20T23:37:05.267Z,3.63
2022-08-20T23:39:32.322Z,3.90
2022-08-20T23:42:00.563Z,3.60
2022-08-20T23:44:28.501Z,3.10
2022-08-20T23:46:59.525Z,4.00
2022-08-20T23:49:28.306Z,3.77
2022-08-20T23:52:00.673Z,3.70
2022-08-20T23:54:30.158Z,3.53
2022-08-20T23:56:57.659Z,3.33
2022-08-20T23:59:27.267Z,4.70
